Impacts TAF Board INFO
FOR SITUATIONAL AWARENESS. NOT TO BE USED FOR FLIGHT PLANNING PURPOSES.
IDs:

KSEA - Seattle-Tacoma Intl, WA, US

Issued at 2047 UTC 14 Aug 2018
Updated at 2204 UTC 14 Aug 2018
Potential Impact None Slight Moderate High
Time2153Z 14/23Z 15/00Z 15/01Z 15/02Z 15/03Z 15/04Z 15/05Z 15/06Z 15/07Z 15/08Z 15/09Z 15/10Z 15/11Z>>
Type OBS PRVL PRVL PRVL PRVL PRVL PRVL PRVL PRVL PRVL PRVL PRVL PRVL PRVL
VIS 3 3 >6 >6 >6 >6 >6 >6 >6 >6 >6 >6 >6 >6
CIG -- -- -- -- -- -- -- -- -- -- -- -- -- --
Cover FEW SCT FEW FEW FEW FEW FEW FEW FEW FEW FEW SCT SCT SCT
FltCat MVFR MVFR VFR VFR VFR VFR VFR VFR VFR VFR VFR VFR VFR VFR
WX HZ FU HZ FU -- -- -- -- -- -- -- -- -- -- -- --
WDir 300 300 340 340 340 340 340 340 340 340 340 VRB VRB VRB
WSpd 8 7 6 6 6 6 6 6 6 6 6 4 4 4
WGst -- -- -- -- -- -- -- -- -- -- -- -- -- --

Raw TAF
KSEA 142047Z 1421/1524 30007KT 3SM HZ FU SCT050
  FM150000 34006KT P6SM FEW060
  FM150900 VRB04KT P6SM SCT060
  FM151800 21006KT P6SM SCT060
  FM152100 31005KT P6SM SCT060


Raw METAR
KSEA 142153Z 30008KT 3SM HZ FU FEW038 28/16 A2989 RMK AO2 SLP126 FU FEW038 T02780156
KSEA 142053Z 29006KT 3SM HZ FU SCT037 27/16 A2991 RMK AO2 SLP133 FU SCT037 T02720156 58014
KSEA 141953Z 28008KT 3SM HZ FU SCT037 26/16 A2993 RMK AO2 SLP138 FU SCT037 T02560156

METAR Board
Radar Display
Forecast Discussion

FOR SITUATIONAL AWARENESS. NOT TO BE USED FOR FLIGHT PLANNING PURPOSES.